sensor_id;sensor_type;location;lat;lon;timestamp;P1;durP1;ratioP1;P2;durP2;ratioP2
14294;SDS011;7231;59.370;18.016;2023-11-19T00:00:22;2.23;;;1.90;;
14294;SDS011;7231;59.370;18.016;2023-11-19T00:02:51;2.07;;;1.87;;
14294;SDS011;7231;59.370;18.016;2023-11-19T00:05:19;2.83;;;2.00;;
14294;SDS011;7231;59.370;18.016;2023-11-19T00:07:47;2.40;;;2.00;;
14294;SDS011;7231;59.370;18.016;2023-11-19T00:10:16;2.53;;;1.90;;
14294;SDS011;7231;59.370;18.016;2023-11-19T00:12:46;1.90;;;1.70;;
14294;SDS011;7231;59.370;18.016;2023-11-19T00:15:16;1.70;;;1.60;;
14294;SDS011;7231;59.370;18.016;2023-11-19T00:17:46;2.30;;;2.03;;
14294;SDS011;7231;59.370;18.016;2023-11-19T00:20:18;1.70;;;1.60;;
14294;SDS011;7231;59.370;18.016;2023-11-19T00:22:46;1.47;;;1.37;;
14294;SDS011;7231;59.370;18.016;2023-11-19T00:25:18;2.00;;;1.80;;
14294;SDS011;7231;59.370;18.016;2023-11-19T00:27:46;2.77;;;1.83;;
14294;SDS011;7231;59.370;18.016;2023-11-19T00:30:15;2.20;;;1.90;;
14294;SDS011;7231;59.370;18.016;2023-11-19T00:32:43;2.17;;;1.93;;
14294;SDS011;7231;59.370;18.016;2023-11-19T00:35:12;2.47;;;1.67;;
14294;SDS011;7231;59.370;18.016;2023-11-19T00:37:42;1.80;;;1.60;;
14294;SDS011;7231;59.370;18.016;2023-11-19T00:40:12;2.57;;;1.87;;
14294;SDS011;7231;59.370;18.016;2023-11-19T00:42:42;1.87;;;1.63;;
14294;SDS011;7231;59.370;18.016;2023-11-19T00:45:11;2.20;;;1.50;;
14294;SDS011;7231;59.370;18.016;2023-11-19T00:47:39;1.90;;;1.70;;
14294;SDS011;7231;59.370;18.016;2023-11-19T00:50:08;3.13;;;1.57;;
14294;SDS011;7231;59.370;18.016;2023-11-19T00:52:38;2.87;;;2.10;;
14294;SDS011;7231;59.370;18.016;2023-11-19T00:55:07;2.93;;;2.20;;
14294;SDS011;7231;59.370;18.016;2023-11-19T00:57:36;3.37;;;1.80;;
14294;SDS011;7231;59.370;18.016;2023-11-19T01:00:04;2.40;;;1.83;;
14294;SDS011;7231;59.370;18.016;2023-11-19T01:02:45;2.07;;;1.87;;
14294;SDS011;7231;59.370;18.016;2023-11-19T01:05:17;1.83;;;1.73;;
14294;SDS011;7231;59.370;18.016;2023-11-19T01:07:48;2.37;;;1.90;;
14294;SDS011;7231;59.370;18.016;2023-11-19T01:10:18;2.10;;;1.90;;
14294;SDS011;7231;59.370;18.016;2023-11-19T01:12:46;2.40;;;1.83;;
14294;SDS011;7231;59.370;18.016;2023-11-19T01:15:14;2.20;;;1.97;;
14294;SDS011;7231;59.370;18.016;2023-11-19T01:17:45;2.83;;;1.87;;
14294;SDS011;7231;59.370;18.016;2023-11-19T01:20:15;2.40;;;2.00;;
14294;SDS011;7231;59.370;18.016;2023-11-19T01:22:43;3.53;;;2.33;;
14294;SDS011;7231;59.370;18.016;2023-11-19T01:25:11;2.37;;;2.17;;
14294;SDS011;7231;59.370;18.016;2023-11-19T01:27:41;2.00;;;1.80;;
14294;SDS011;7231;59.370;18.016;2023-11-19T01:30:10;2.10;;;1.90;;
14294;SDS011;7231;59.370;18.016;2023-11-19T01:32:39;2.90;;;2.47;;
14294;SDS011;7231;59.370;18.016;2023-11-19T01:35:08;2.57;;;2.00;;
14294;SDS011;7231;59.370;18.016;2023-11-19T01:37:36;2.83;;;2.27;;
14294;SDS011;7231;59.370;18.016;2023-11-19T01:40:04;2.30;;;2.00;;
14294;SDS011;7231;59.370;18.016;2023-11-19T01:42:36;2.37;;;2.10;;
14294;SDS011;7231;59.370;18.016;2023-11-19T01:45:06;2.10;;;1.90;;
14294;SDS011;7231;59.370;18.016;2023-11-19T01:47:36;1.90;;;1.70;;
14294;SDS011;7231;59.370;18.016;2023-11-19T01:50:05;2.83;;;1.90;;
14294;SDS011;7231;59.370;18.016;2023-11-19T01:52:35;2.50;;;2.17;;
14294;SDS011;7231;59.370;18.016;2023-11-19T01:55:04;2.27;;;2.07;;
14294;SDS011;7231;59.370;18.016;2023-11-19T01:57:34;3.33;;;2.00;;
14294;SDS011;7231;59.370;18.016;2023-11-19T02:00:07;2.20;;;2.00;;
14294;SDS011;7231;59.370;18.016;2023-11-19T02:02:39;2.57;;;2.10;;
14294;SDS011;7231;59.370;18.016;2023-11-19T02:05:08;2.00;;;1.80;;
14294;SDS011;7231;59.370;18.016;2023-11-19T02:07:36;2.90;;;2.10;;
14294;SDS011;7231;59.370;18.016;2023-11-19T02:10:05;1.87;;;1.60;;
14294;SDS011;7231;59.370;18.016;2023-11-19T02:12:40;2.63;;;1.67;;
14294;SDS011;7231;59.370;18.016;2023-11-19T02:15:11;1.83;;;1.60;;
14294;SDS011;7231;59.370;18.016;2023-11-19T02:17:39;1.50;;;1.40;;
14294;SDS011;7231;59.370;18.016;2023-11-19T02:20:08;2.27;;;1.67;;
14294;SDS011;7231;59.370;18.016;2023-11-19T02:22:38;1.77;;;1.50;;
14294;SDS011;7231;59.370;18.016;2023-11-19T02:25:07;1.67;;;1.57;;
14294;SDS011;7231;59.370;18.016;2023-11-19T02:27:46;1.50;;;1.40;;
14294;SDS011;7231;59.370;18.016;2023-11-19T02:30:18;1.80;;;1.53;;
14294;SDS011;7231;59.370;18.016;2023-11-19T02:32:46;1.87;;;1.67;;
14294;SDS011;7231;59.370;18.016;2023-11-19T02:35:14;1.80;;;1.60;;
14294;SDS011;7231;59.370;18.016;2023-11-19T02:37:42;2.03;;;1.57;;
14294;SDS011;7231;59.370;18.016;2023-11-19T02:40:11;2.13;;;1.60;;
14294;SDS011;7231;59.370;18.016;2023-11-19T02:42:40;2.13;;;1.60;;
14294;SDS011;7231;59.370;18.016;2023-11-19T02:45:10;2.20;;;1.90;;
14294;SDS011;7231;59.370;18.016;2023-11-19T02:47:41;2.00;;;1.60;;
14294;SDS011;7231;59.370;18.016;2023-11-19T02:50:10;2.97;;;1.70;;
14294;SDS011;7231;59.370;18.016;2023-11-19T02:52:40;3.23;;;1.90;;
14294;SDS011;7231;59.370;18.016;2023-11-19T02:55:10;2.10;;;1.70;;
14294;SDS011;7231;59.370;18.016;2023-11-19T02:57:39;2.20;;;2.00;;
14294;SDS011;7231;59.370;18.016;2023-11-19T03:00:14;2.90;;;1.80;;
14294;SDS011;7231;59.370;18.016;2023-11-19T03:02:43;4.53;;;2.27;;
14294;SDS011;7231;59.370;18.016;2023-11-19T03:05:13;2.57;;;1.80;;
14294;SDS011;7231;59.370;18.016;2023-11-19T03:07:43;2.03;;;1.83;;
14294;SDS011;7231;59.370;18.016;2023-11-19T03:10:11;3.43;;;2.20;;
14294;SDS011;7231;59.370;18.016;2023-11-19T03:12:41;3.27;;;2.00;;
14294;SDS011;7231;59.370;18.016;2023-11-19T03:15:10;2.70;;;2.00;;
14294;SDS011;7231;59.370;18.016;2023-11-19T03:17:40;2.30;;;2.00;;
14294;SDS011;7231;59.370;18.016;2023-11-19T03:20:09;2.73;;;2.00;;
14294;SDS011;7231;59.370;18.016;2023-11-19T03:22:41;2.20;;;1.63;;
14294;SDS011;7231;59.370;18.016;2023-11-19T03:25:10;2.63;;;2.00;;
14294;SDS011;7231;59.370;18.016;2023-11-19T03:27:39;2.50;;;2.07;;
14294;SDS011;7231;59.370;18.016;2023-11-19T03:30:08;2.70;;;2.30;;
14294;SDS011;7231;59.370;18.016;2023-11-19T03:32:37;4.03;;;2.40;;
14294;SDS011;7231;59.370;18.016;2023-11-19T03:35:07;2.13;;;1.93;;
14294;SDS011;7231;59.370;18.016;2023-11-19T03:37:36;3.57;;;2.37;;
14294;SDS011;7231;59.370;18.016;2023-11-19T03:40:06;3.13;;;2.30;;
14294;SDS011;7231;59.370;18.016;2023-11-19T03:42:35;3.10;;;2.40;;
14294;SDS011;7231;59.370;18.016;2023-11-19T03:45:03;2.70;;;2.37;;
14294;SDS011;7231;59.370;18.016;2023-11-19T03:47:31;2.80;;;2.20;;
14294;SDS011;7231;59.370;18.016;2023-11-19T03:49:59;2.93;;;2.30;;
14294;SDS011;7231;59.370;18.016;2023-11-19T03:52:30;2.93;;;2.30;;
14294;SDS011;7231;59.370;18.016;2023-11-19T03:55:09;3.63;;;2.40;;
14294;SDS011;7231;59.370;18.016;2023-11-19T03:57:39;2.40;;;2.20;;
14294;SDS011;7231;59.370;18.016;2023-11-19T04:00:07;2.93;;;2.30;;
14294;SDS011;7231;59.370;18.016;2023-11-19T04:02:36;3.00;;;2.23;;
14294;SDS011;7231;59.370;18.016;2023-11-19T04:05:05;5.57;;;3.03;;
14294;SDS011;7231;59.370;18.016;2023-11-19T04:07:35;3.17;;;2.40;;
14294;SDS011;7231;59.370;18.016;2023-11-19T04:10:03;2.50;;;2.23;;
14294;SDS011;7231;59.370;18.016;2023-11-19T04:12:32;3.60;;;3.10;;
14294;SDS011;7231;59.370;18.016;2023-11-19T04:15:00;3.50;;;2.43;;
14294;SDS011;7231;59.370;18.016;2023-11-19T04:17:28;3.87;;;2.57;;
14294;SDS011;7231;59.370;18.016;2023-11-19T04:19:56;3.67;;;2.60;;
14294;SDS011;7231;59.370;18.016;2023-11-19T04:22:25;2.87;;;2.40;;
14294;SDS011;7231;59.370;18.016;2023-11-19T04:24:54;3.80;;;2.20;;
14294;SDS011;7231;59.370;18.016;2023-11-19T04:27:22;3.00;;;2.53;;
14294;SDS011;7231;59.370;18.016;2023-11-19T04:29:50;3.57;;;2.20;;
14294;SDS011;7231;59.370;18.016;2023-11-19T04:32:18;2.87;;;2.50;;
14294;SDS011;7231;59.370;18.016;2023-11-19T04:34:47;3.50;;;2.70;;
14294;SDS011;7231;59.370;18.016;2023-11-19T04:37:15;3.50;;;2.90;;
14294;SDS011;7231;59.370;18.016;2023-11-19T04:39:43;2.80;;;2.33;;
14294;SDS011;7231;59.370;18.016;2023-11-19T04:42:14;2.70;;;2.27;;
14294;SDS011;7231;59.370;18.016;2023-11-19T04:44:43;2.90;;;2.33;;
14294;SDS011;7231;59.370;18.016;2023-11-19T04:47:11;2.53;;;2.00;;
14294;SDS011;7231;59.370;18.016;2023-11-19T04:49:40;2.50;;;2.23;;
14294;SDS011;7231;59.370;18.016;2023-11-19T04:52:09;2.20;;;2.00;;
14294;SDS011;7231;59.370;18.016;2023-11-19T04:54:40;4.27;;;2.50;;
14294;SDS011;7231;59.370;18.016;2023-11-19T04:57:09;2.47;;;2.10;;
14294;SDS011;7231;59.370;18.016;2023-11-19T04:59:39;2.70;;;1.87;;
14294;SDS011;7231;59.370;18.016;2023-11-19T05:02:08;2.73;;;2.20;;
14294;SDS011;7231;59.370;18.016;2023-11-19T05:04:36;3.43;;;2.37;;
14294;SDS011;7231;59.370;18.016;2023-11-19T05:07:05;3.27;;;2.30;;
14294;SDS011;7231;59.370;18.016;2023-11-19T05:09:33;2.90;;;2.50;;
14294;SDS011;7231;59.370;18.016;2023-11-19T05:12:01;2.93;;;2.20;;
14294;SDS011;7231;59.370;18.016;2023-11-19T05:14:29;3.57;;;2.50;;
14294;SDS011;7231;59.370;18.016;2023-11-19T05:16:59;2.37;;;2.17;;
14294;SDS011;7231;59.370;18.016;2023-11-19T05:19:27;2.40;;;1.80;;
14294;SDS011;7231;59.370;18.016;2023-11-19T05:21:55;3.20;;;2.47;;
14294;SDS011;7231;59.370;18.016;2023-11-19T05:24:23;2.47;;;2.27;;
14294;SDS011;7231;59.370;18.016;2023-11-19T05:26:51;3.87;;;2.20;;
14294;SDS011;7231;59.370;18.016;2023-11-19T05:29:19;3.10;;;2.20;;
14294;SDS011;7231;59.370;18.016;2023-11-19T05:31:47;5.17;;;2.20;;
14294;SDS011;7231;59.370;18.016;2023-11-19T05:34:17;3.30;;;2.40;;
14294;SDS011;7231;59.370;18.016;2023-11-19T05:36:45;3.57;;;2.70;;
14294;SDS011;7231;59.370;18.016;2023-11-19T05:39:13;3.30;;;2.40;;
14294;SDS011;7231;59.370;18.016;2023-11-19T05:41:44;4.93;;;2.50;;
14294;SDS011;7231;59.370;18.016;2023-11-19T05:44:12;5.07;;;2.60;;
14294;SDS011;7231;59.370;18.016;2023-11-19T05:46:40;5.17;;;2.70;;
14294;SDS011;7231;59.370;18.016;2023-11-19T05:49:12;2.73;;;2.47;;
14294;SDS011;7231;59.370;18.016;2023-11-19T05:51:41;4.17;;;2.80;;
14294;SDS011;7231;59.370;18.016;2023-11-19T05:54:09;4.20;;;2.87;;
14294;SDS011;7231;59.370;18.016;2023-11-19T05:56:37;3.10;;;2.23;;
14294;SDS011;7231;59.370;18.016;2023-11-19T05:59:05;7.60;;;3.00;;
14294;SDS011;7231;59.370;18.016;2023-11-19T06:01:41;3.37;;;2.90;;
14294;SDS011;7231;59.370;18.016;2023-11-19T06:04:09;4.30;;;2.70;;
14294;SDS011;7231;59.370;18.016;2023-11-19T06:06:37;3.60;;;2.87;;
14294;SDS011;7231;59.370;18.016;2023-11-19T06:09:07;3.60;;;2.60;;
14294;SDS011;7231;59.370;18.016;2023-11-19T06:11:39;3.93;;;2.90;;
14294;SDS011;7231;59.370;18.016;2023-11-19T06:14:07;3.00;;;2.53;;
14294;SDS011;7231;59.370;18.016;2023-11-19T06:16:35;6.20;;;3.00;;
14294;SDS011;7231;59.370;18.016;2023-11-19T06:19:06;3.10;;;2.53;;
14294;SDS011;7231;59.370;18.016;2023-11-19T06:21:34;5.77;;;2.80;;
14294;SDS011;7231;59.370;18.016;2023-11-19T06:24:03;3.17;;;2.50;;
14294;SDS011;7231;59.370;18.016;2023-11-19T06:26:33;3.13;;;2.60;;
14294;SDS011;7231;59.370;18.016;2023-11-19T06:29:01;5.07;;;2.50;;
14294;SDS011;7231;59.370;18.016;2023-11-19T06:31:29;3.77;;;2.50;;
14294;SDS011;7231;59.370;18.016;2023-11-19T06:33:57;4.90;;;2.70;;
14294;SDS011;7231;59.370;18.016;2023-11-19T06:36:25;3.17;;;2.40;;
14294;SDS011;7231;59.370;18.016;2023-11-19T06:38:54;2.53;;;2.33;;
14294;SDS011;7231;59.370;18.016;2023-11-19T06:41:22;5.50;;;2.67;;
14294;SDS011;7231;59.370;18.016;2023-11-19T06:43:51;2.27;;;1.93;;
14294;SDS011;7231;59.370;18.016;2023-11-19T06:46:19;4.70;;;2.37;;
14294;SDS011;7231;59.370;18.016;2023-11-19T06:48:47;5.03;;;2.70;;
14294;SDS011;7231;59.370;18.016;2023-11-19T06:51:15;5.37;;;2.40;;
14294;SDS011;7231;59.370;18.016;2023-11-19T06:53:43;3.50;;;2.40;;
14294;SDS011;7231;59.370;18.016;2023-11-19T06:56:19;3.43;;;2.23;;
14294;SDS011;7231;59.370;18.016;2023-11-19T06:58:47;4.63;;;2.40;;
14294;SDS011;7231;59.370;18.016;2023-11-19T07:01:17;5.50;;;2.53;;
14294;SDS011;7231;59.370;18.016;2023-11-19T07:03:45;6.97;;;2.73;;
14294;SDS011;7231;59.370;18.016;2023-11-19T07:06:14;5.30;;;3.03;;
14294;SDS011;7231;59.370;18.016;2023-11-19T07:08:42;7.37;;;3.13;;
14294;SDS011;7231;59.370;18.016;2023-11-19T07:11:11;2.90;;;2.60;;
14294;SDS011;7231;59.370;18.016;2023-11-19T07:13:40;5.37;;;3.20;;
14294;SDS011;7231;59.370;18.016;2023-11-19T07:16:08;4.90;;;2.60;;
14294;SDS011;7231;59.370;18.016;2023-11-19T07:18:38;6.60;;;2.90;;
14294;SDS011;7231;59.370;18.016;2023-11-19T07:21:08;4.90;;;2.80;;
14294;SDS011;7231;59.370;18.016;2023-11-19T07:23:37;11.27;;;3.00;;
14294;SDS011;7231;59.370;18.016;2023-11-19T07:26:05;3.43;;;2.83;;
14294;SDS011;7231;59.370;18.016;2023-11-19T07:28:35;4.57;;;2.50;;
14294;SDS011;7231;59.370;18.016;2023-11-19T07:31:04;4.57;;;2.53;;
14294;SDS011;7231;59.370;18.016;2023-11-19T07:33:34;4.60;;;2.50;;
14294;SDS011;7231;59.370;18.016;2023-11-19T07:36:04;3.20;;;2.70;;
14294;SDS011;7231;59.370;18.016;2023-11-19T07:38:33;9.87;;;3.00;;
14294;SDS011;7231;59.370;18.016;2023-11-19T07:41:01;6.50;;;3.50;;
14294;SDS011;7231;59.370;18.016;2023-11-19T07:43:31;3.93;;;2.80;;
14294;SDS011;7231;59.370;18.016;2023-11-19T07:45:59;8.13;;;3.23;;
14294;SDS011;7231;59.370;18.016;2023-11-19T07:48:28;5.97;;;3.17;;
14294;SDS011;7231;59.370;18.016;2023-11-19T07:50:56;4.00;;;2.80;;
14294;SDS011;7231;59.370;18.016;2023-11-19T07:53:25;4.50;;;3.00;;
14294;SDS011;7231;59.370;18.016;2023-11-19T07:55:53;4.03;;;2.70;;
14294;SDS011;7231;59.370;18.016;2023-11-19T07:58:21;5.57;;;3.00;;
14294;SDS011;7231;59.370;18.016;2023-11-19T08:00:49;4.33;;;2.87;;
14294;SDS011;7231;59.370;18.016;2023-11-19T08:03:17;6.80;;;2.40;;
14294;SDS011;7231;59.370;18.016;2023-11-19T08:05:46;6.00;;;2.90;;
14294;SDS011;7231;59.370;18.016;2023-11-19T08:08:14;3.67;;;2.40;;
14294;SDS011;7231;59.370;18.016;2023-11-19T08:10:43;3.33;;;2.37;;
14294;SDS011;7231;59.370;18.016;2023-11-19T08:13:14;3.47;;;2.30;;
14294;SDS011;7231;59.370;18.016;2023-11-19T08:15:42;3.30;;;2.67;;
14294;SDS011;7231;59.370;18.016;2023-11-19T08:18:11;6.10;;;2.80;;
14294;SDS011;7231;59.370;18.016;2023-11-19T08:20:39;3.77;;;2.37;;
14294;SDS011;7231;59.370;18.016;2023-11-19T08:23:07;2.40;;;2.17;;
14294;SDS011;7231;59.370;18.016;2023-11-19T08:25:35;3.70;;;2.80;;
14294;SDS011;7231;59.370;18.016;2023-11-19T08:28:05;3.77;;;2.70;;
14294;SDS011;7231;59.370;18.016;2023-11-19T08:30:33;2.90;;;2.30;;
14294;SDS011;7231;59.370;18.016;2023-11-19T08:33:01;6.43;;;2.67;;
14294;SDS011;7231;59.370;18.016;2023-11-19T08:35:30;2.77;;;2.23;;
14294;SDS011;7231;59.370;18.016;2023-11-19T08:37:58;9.03;;;2.53;;
14294;SDS011;7231;59.370;18.016;2023-11-19T08:40:26;2.70;;;2.37;;
14294;SDS011;7231;59.370;18.016;2023-11-19T08:42:54;7.63;;;3.73;;
14294;SDS011;7231;59.370;18.016;2023-11-19T08:45:24;4.37;;;3.63;;
14294;SDS011;7231;59.370;18.016;2023-11-19T08:47:52;8.67;;;2.73;;
14294;SDS011;7231;59.370;18.016;2023-11-19T08:50:21;3.13;;;2.30;;
14294;SDS011;7231;59.370;18.016;2023-11-19T08:52:49;2.80;;;2.50;;
14294;SDS011;7231;59.370;18.016;2023-11-19T08:55:17;3.80;;;2.10;;
14294;SDS011;7231;59.370;18.016;2023-11-19T08:57:45;5.07;;;2.50;;
14294;SDS011;7231;59.370;18.016;2023-11-19T09:00:13;3.17;;;2.40;;
14294;SDS011;7231;59.370;18.016;2023-11-19T09:02:43;2.50;;;2.10;;
14294;SDS011;7231;59.370;18.016;2023-11-19T09:05:11;3.07;;;2.40;;
14294;SDS011;7231;59.370;18.016;2023-11-19T09:07:39;3.40;;;2.37;;
14294;SDS011;7231;59.370;18.016;2023-11-19T09:10:08;3.77;;;2.57;;
14294;SDS011;7231;59.370;18.016;2023-11-19T09:12:37;3.67;;;2.40;;
14294;SDS011;7231;59.370;18.016;2023-11-19T09:15:06;3.77;;;2.10;;
14294;SDS011;7231;59.370;18.016;2023-11-19T09:17:37;4.30;;;2.37;;
14294;SDS011;7231;59.370;18.016;2023-11-19T09:20:07;3.97;;;2.70;;
14294;SDS011;7231;59.370;18.016;2023-11-19T09:22:39;2.97;;;2.40;;
14294;SDS011;7231;59.370;18.016;2023-11-19T09:25:07;2.43;;;2.10;;
14294;SDS011;7231;59.370;18.016;2023-11-19T09:27:35;5.23;;;2.70;;
14294;SDS011;7231;59.370;18.016;2023-11-19T09:30:03;4.97;;;2.80;;
14294;SDS011;7231;59.370;18.016;2023-11-19T09:32:33;5.10;;;2.43;;
14294;SDS011;7231;59.370;18.016;2023-11-19T09:35:02;5.37;;;2.43;;
14294;SDS011;7231;59.370;18.016;2023-11-19T09:37:31;5.73;;;2.93;;
14294;SDS011;7231;59.370;18.016;2023-11-19T09:39:59;6.47;;;2.80;;
14294;SDS011;7231;59.370;18.016;2023-11-19T09:42:27;5.27;;;2.80;;
14294;SDS011;7231;59.370;18.016;2023-11-19T09:44:55;5.17;;;2.53;;
14294;SDS011;7231;59.370;18.016;2023-11-19T09:47:25;4.57;;;2.90;;
14294;SDS011;7231;59.370;18.016;2023-11-19T09:49:56;5.13;;;2.60;;
14294;SDS011;7231;59.370;18.016;2023-11-19T09:52:24;5.30;;;2.40;;
14294;SDS011;7231;59.370;18.016;2023-11-19T09:54:54;5.40;;;2.80;;
14294;SDS011;7231;59.370;18.016;2023-11-19T09:57:22;3.30;;;2.50;;
14294;SDS011;7231;59.370;18.016;2023-11-19T09:59:50;7.20;;;2.80;;
14294;SDS011;7231;59.370;18.016;2023-11-19T10:02:20;3.73;;;2.60;;
14294;SDS011;7231;59.370;18.016;2023-11-19T10:04:48;5.15;;;2.97;;
14294;SDS011;7231;59.370;18.016;2023-11-19T10:07:18;3.13;;;2.47;;
14294;SDS011;7231;59.370;18.016;2023-11-19T10:09:50;3.63;;;2.90;;
14294;SDS011;7231;59.370;18.016;2023-11-19T10:12:19;6.17;;;2.80;;
14294;SDS011;7231;59.370;18.016;2023-11-19T10:14:47;7.97;;;2.90;;
14294;SDS011;7231;59.370;18.016;2023-11-19T10:17:17;2.70;;;2.23;;
14294;SDS011;7231;59.370;18.016;2023-11-19T10:19:45;5.53;;;2.67;;
14294;SDS011;7231;59.370;18.016;2023-11-19T10:22:13;5.73;;;3.00;;
14294;SDS011;7231;59.370;18.016;2023-11-19T10:24:43;3.90;;;2.50;;
14294;SDS011;7231;59.370;18.016;2023-11-19T10:27:16;5.80;;;2.93;;
14294;SDS011;7231;59.370;18.016;2023-11-19T10:29:46;6.70;;;2.77;;
14294;SDS011;7231;59.370;18.016;2023-11-19T10:32:15;4.73;;;3.07;;
14294;SDS011;7231;59.370;18.016;2023-11-19T10:34:52;6.43;;;2.80;;
14294;SDS011;7231;59.370;18.016;2023-11-19T10:37:32;7.60;;;2.70;;
14294;SDS011;7231;59.370;18.016;2023-11-19T10:40:02;5.00;;;2.93;;
14294;SDS011;7231;59.370;18.016;2023-11-19T10:42:31;5.07;;;2.60;;
14294;SDS011;7231;59.370;18.016;2023-11-19T10:45:02;4.77;;;2.73;;
14294;SDS011;7231;59.370;18.016;2023-11-19T10:47:31;4.93;;;2.50;;
14294;SDS011;7231;59.370;18.016;2023-11-19T10:50:05;3.70;;;2.70;;
14294;SDS011;7231;59.370;18.016;2023-11-19T10:52:34;7.07;;;2.73;;
14294;SDS011;7231;59.370;18.016;2023-11-19T10:55:02;6.20;;;2.80;;
14294;SDS011;7231;59.370;18.016;2023-11-19T10:57:36;4.33;;;2.80;;
14294;SDS011;7231;59.370;18.016;2023-11-19T11:00:08;3.30;;;2.23;;
14294;SDS011;7231;59.370;18.016;2023-11-19T11:02:40;3.67;;;3.00;;
14294;SDS011;7231;59.370;18.016;2023-11-19T11:05:12;4.50;;;3.00;;
14294;SDS011;7231;59.370;18.016;2023-11-19T11:07:42;7.10;;;2.90;;
14294;SDS011;7231;59.370;18.016;2023-11-19T11:10:12;7.37;;;2.90;;
14294;SDS011;7231;59.370;18.016;2023-11-19T11:12:42;5.93;;;2.90;;
14294;SDS011;7231;59.370;18.016;2023-11-19T11:15:14;5.17;;;3.20;;
14294;SDS011;7231;59.370;18.016;2023-11-19T11:17:42;4.80;;;2.73;;
14294;SDS011;7231;59.370;18.016;2023-11-19T11:20:12;4.20;;;2.50;;
14294;SDS011;7231;59.370;18.016;2023-11-19T11:22:44;6.90;;;3.57;;
14294;SDS011;7231;59.370;18.016;2023-11-19T11:25:28;6.50;;;2.80;;
14294;SDS011;7231;59.370;18.016;2023-11-19T11:28:07;5.23;;;2.40;;
14294;SDS011;7231;59.370;18.016;2023-11-19T11:30:59;3.53;;;2.90;;
14294;SDS011;7231;59.370;18.016;2023-11-19T11:33:41;6.37;;;3.17;;
14294;SDS011;7231;59.370;18.016;2023-11-19T11:36:30;4.77;;;2.43;;
14294;SDS011;7231;59.370;18.016;2023-11-19T11:39:03;4.37;;;2.93;;
14294;SDS011;7231;59.370;18.016;2023-11-19T11:41:34;3.80;;;2.50;;
14294;SDS011;7231;59.370;18.016;2023-11-19T11:44:02;7.33;;;3.17;;
14294;SDS011;7231;59.370;18.016;2023-11-19T11:49:27;6.13;;;2.60;;
14294;SDS011;7231;59.370;18.016;2023-11-19T11:51:58;6.67;;;2.73;;
14294;SDS011;7231;59.370;18.016;2023-11-19T11:54:29;3.67;;;2.50;;
14294;SDS011;7231;59.370;18.016;2023-11-19T11:57:02;3.80;;;2.70;;
14294;SDS011;7231;59.370;18.016;2023-11-19T12:02:21;3.83;;;2.60;;
14294;SDS011;7231;59.370;18.016;2023-11-19T12:04:50;6.20;;;2.43;;
14294;SDS011;7231;59.370;18.016;2023-11-19T12:07:20;4.20;;;2.40;;
14294;SDS011;7231;59.370;18.016;2023-11-19T12:09:51;3.77;;;2.23;;
14294;SDS011;7231;59.370;18.016;2023-11-19T12:12:22;5.37;;;2.77;;
14294;SDS011;7231;59.370;18.016;2023-11-19T12:15:00;3.20;;;2.43;;
14294;SDS011;7231;59.370;18.016;2023-11-19T12:17:43;3.77;;;2.47;;
14294;SDS011;7231;59.370;18.016;2023-11-19T12:20:16;2.70;;;2.33;;
14294;SDS011;7231;59.370;18.016;2023-11-19T12:23:00;2.90;;;2.30;;
14294;SDS011;7231;59.370;18.016;2023-11-19T12:25:34;3.13;;;2.57;;
14294;SDS011;7231;59.370;18.016;2023-11-19T12:28:02;4.13;;;2.50;;
14294;SDS011;7231;59.370;18.016;2023-11-19T12:30:31;5.20;;;2.53;;
14294;SDS011;7231;59.370;18.016;2023-11-19T12:33:07;4.93;;;2.60;;
14294;SDS011;7231;59.370;18.016;2023-11-19T12:35:38;3.63;;;2.77;;
14294;SDS011;7231;59.370;18.016;2023-11-19T12:38:06;5.77;;;2.87;;
14294;SDS011;7231;59.370;18.016;2023-11-19T12:40:34;4.93;;;2.77;;
14294;SDS011;7231;59.370;18.016;2023-11-19T12:43:02;5.00;;;2.90;;
14294;SDS011;7231;59.370;18.016;2023-11-19T12:45:34;7.47;;;2.80;;
14294;SDS011;7231;59.370;18.016;2023-11-19T12:48:07;4.47;;;2.67;;
14294;SDS011;7231;59.370;18.016;2023-11-19T12:50:50;7.83;;;2.90;;
14294;SDS011;7231;59.370;18.016;2023-11-19T12:53:18;6.80;;;2.37;;
14294;SDS011;7231;59.370;18.016;2023-11-19T12:55:46;4.40;;;2.90;;
14294;SDS011;7231;59.370;18.016;2023-11-19T12:58:27;5.90;;;2.70;;
14294;SDS011;7231;59.370;18.016;2023-11-19T13:00:59;2.63;;;2.20;;
14294;SDS011;7231;59.370;18.016;2023-11-19T13:03:30;4.20;;;2.70;;
14294;SDS011;7231;59.370;18.016;2023-11-19T13:06:03;4.47;;;2.57;;
14294;SDS011;7231;59.370;18.016;2023-11-19T13:08:37;6.30;;;2.77;;
14294;SDS011;7231;59.370;18.016;2023-11-19T13:11:07;3.33;;;2.23;;
14294;SDS011;7231;59.370;18.016;2023-11-19T13:13:54;3.87;;;2.87;;
14294;SDS011;7231;59.370;18.016;2023-11-19T13:16:23;6.93;;;2.57;;
14294;SDS011;7231;59.370;18.016;2023-11-19T13:18:53;3.87;;;2.40;;
14294;SDS011;7231;59.370;18.016;2023-11-19T13:21:21;3.20;;;2.33;;
14294;SDS011;7231;59.370;18.016;2023-11-19T13:23:49;5.10;;;2.27;;
14294;SDS011;7231;59.370;18.016;2023-11-19T13:26:17;3.70;;;2.60;;
14294;SDS011;7231;59.370;18.016;2023-11-19T13:28:45;3.40;;;2.50;;
14294;SDS011;7231;59.370;18.016;2023-11-19T13:31:13;3.13;;;2.40;;
14294;SDS011;7231;59.370;18.016;2023-11-19T13:33:41;2.87;;;2.20;;
14294;SDS011;7231;59.370;18.016;2023-11-19T13:36:11;3.57;;;2.43;;
14294;SDS011;7231;59.370;18.016;2023-11-19T13:38:42;7.73;;;2.67;;
14294;SDS011;7231;59.370;18.016;2023-11-19T13:41:11;5.10;;;3.17;;
14294;SDS011;7231;59.370;18.016;2023-11-19T13:43:40;4.97;;;2.37;;
14294;SDS011;7231;59.370;18.016;2023-11-19T13:46:08;4.57;;;2.63;;
14294;SDS011;7231;59.370;18.016;2023-11-19T13:48:37;4.03;;;3.00;;
14294;SDS011;7231;59.370;18.016;2023-11-19T13:51:05;5.40;;;2.90;;
14294;SDS011;7231;59.370;18.016;2023-11-19T13:53:35;3.10;;;2.20;;
14294;SDS011;7231;59.370;18.016;2023-11-19T13:56:07;4.13;;;2.70;;
14294;SDS011;7231;59.370;18.016;2023-11-19T13:58:35;3.73;;;2.60;;
14294;SDS011;7231;59.370;18.016;2023-11-19T14:01:03;4.07;;;2.70;;
14294;SDS011;7231;59.370;18.016;2023-11-19T14:03:32;3.37;;;2.20;;
14294;SDS011;7231;59.370;18.016;2023-11-19T14:06:01;5.77;;;2.63;;
14294;SDS011;7231;59.370;18.016;2023-11-19T14:08:29;4.13;;;2.80;;
14294;SDS011;7231;59.370;18.016;2023-11-19T14:10:58;2.60;;;2.27;;
14294;SDS011;7231;59.370;18.016;2023-11-19T14:13:26;5.37;;;2.57;;
14294;SDS011;7231;59.370;18.016;2023-11-19T14:15:54;2.93;;;2.30;;
14294;SDS011;7231;59.370;18.016;2023-11-19T14:18:22;3.30;;;2.50;;
14294;SDS011;7231;59.370;18.016;2023-11-19T14:20:50;2.90;;;2.17;;
14294;SDS011;7231;59.370;18.016;2023-11-19T14:23:19;3.70;;;2.57;;
14294;SDS011;7231;59.370;18.016;2023-11-19T14:25:47;2.83;;;2.23;;
14294;SDS011;7231;59.370;18.016;2023-11-19T14:28:17;2.87;;;2.10;;
14294;SDS011;7231;59.370;18.016;2023-11-19T14:30:45;2.50;;;2.10;;
14294;SDS011;7231;59.370;18.016;2023-11-19T14:33:20;3.10;;;2.37;;
14294;SDS011;7231;59.370;18.016;2023-11-19T14:35:48;5.43;;;2.30;;
14294;SDS011;7231;59.370;18.016;2023-11-19T14:38:16;2.97;;;1.60;;
14294;SDS011;7231;59.370;18.016;2023-11-19T14:40:44;2.60;;;2.20;;
14294;SDS011;7231;59.370;18.016;2023-11-19T14:43:12;4.23;;;2.50;;
14294;SDS011;7231;59.370;18.016;2023-11-19T14:45:43;3.40;;;2.47;;
14294;SDS011;7231;59.370;18.016;2023-11-19T14:48:15;3.73;;;2.13;;
14294;SDS011;7231;59.370;18.016;2023-11-19T14:50:44;2.40;;;1.93;;
14294;SDS011;7231;59.370;18.016;2023-11-19T14:53:13;3.00;;;2.20;;
14294;SDS011;7231;59.370;18.016;2023-11-19T14:55:41;3.70;;;2.20;;
14294;SDS011;7231;59.370;18.016;2023-11-19T14:58:09;4.73;;;2.03;;
14294;SDS011;7231;59.370;18.016;2023-11-19T15:00:43;7.27;;;2.40;;
14294;SDS011;7231;59.370;18.016;2023-11-19T15:03:11;2.77;;;2.23;;
14294;SDS011;7231;59.370;18.016;2023-11-19T15:05:40;3.40;;;2.10;;
14294;SDS011;7231;59.370;18.016;2023-11-19T15:08:08;4.43;;;2.50;;